Time;durP1;ratioP1;P1;durP2;ratioP2;P2;SDS_P1;SDS_P2;PMS_P1;PMS_P2;Temp;Humidity;BMP_temperature;BMP_pressure;BME280_temperature;BME280_humidity;BME280_pressure;Samples;Min_cycle;Max_cycle;Signal;HPM_P1;HPM_P2
2022/11/01 00:01:33;;;;;;;5.43;2.55;;;22.00;54.40;;;;;;5049433;28;20108;-49
2022/11/01 00:03:59;;;;;;;4.28;2.90;;;22.00;54.40;;;;;;5038853;28;20111;-52
2022/11/01 00:06:25;;;;;;;5.25;2.97;;;22.00;54.40;;;;;;5037681;28;20036;-49
2022/11/01 00:08:51;;;;;;;4.60;3.00;;;22.00;54.40;;;;;;5052437;28;20031;-49
2022/11/01 00:11:17;;;;;;;5.93;3.10;;;22.00;54.40;;;;;;5052572;28;20033;-48
2022/11/01 00:13:48;;;;;;;4.13;2.83;;;22.00;54.40;;;;;;5052698;28;20040;-49
2022/11/01 00:16:15;;;;;;;4.53;3.00;;;22.00;54.40;;;;;;5051035;28;20056;-48
2022/11/01 00:18:41;;;;;;;4.57;2.88;;;22.00;54.40;;;;;;5052421;28;20029;-50
2022/11/01 00:21:08;;;;;;;3.88;2.80;;;22.00;54.40;;;;;;5053442;28;20056;-47
2022/11/01 00:23:35;;;;;;;4.47;2.90;;;22.00;54.40;;;;;;5051583;28;20456;-53
2022/11/01 00:26:01;;;;;;;3.97;2.67;;;22.00;54.40;;;;;;5051099;28;20440;-53
2022/11/01 00:28:27;;;;;;;4.18;2.72;;;22.00;54.40;;;;;;5052590;28;20029;-49
2022/11/01 00:30:55;;;;;;;5.45;3.13;;;22.00;54.40;;;;;;5052960;28;20474;-49
2022/11/01 00:33:21;;;;;;;4.68;2.85;;;22.00;54.50;;;;;;5051341;28;20033;-51
2022/11/01 00:35:47;;;;;;;6.00;2.42;;;22.00;54.50;;;;;;5052643;28;20021;-52
2022/11/01 00:38:15;;;;;;;4.13;2.45;;;22.00;54.50;;;;;;5052270;28;20066;-53
2022/11/01 00:40:42;;;;;;;4.25;2.47;;;22.00;54.50;;;;;;5052051;28;20031;-51
2022/11/01 00:43:08;;;;;;;3.35;2.22;;;22.00;54.60;;;;;;5050614;28;20103;-49
2022/11/01 00:45:34;;;;;;;5.53;2.70;;;22.00;54.60;;;;;;5052879;28;20029;-52
2022/11/01 00:47:59;;;;;;;7.43;3.03;;;22.00;54.60;;;;;;5052555;28;20021;-51
2022/11/01 00:50:25;;;;;;;5.00;2.78;;;22.00;54.70;;;;;;5052785;28;20352;-52
2022/11/01 00:52:51;;;;;;;3.78;2.53;;;22.00;54.70;;;;;;5053098;28;20162;-52
2022/11/01 00:55:17;;;;;;;6.30;2.83;;;22.00;54.70;;;;;;5051221;28;20032;-51
2022/11/01 00:57:44;;;;;;;4.93;2.60;;;22.00;54.70;;;;;;5052076;28;20040;-49
2022/11/01 01:00:11;;;;;;;5.50;2.72;;;22.00;54.80;;;;;;5051909;28;20025;-50
2022/11/01 01:02:37;;;;;;;5.22;2.67;;;22.00;54.80;;;;;;5049552;28;20039;-47
2022/11/01 01:05:03;;;;;;;4.45;2.55;;;22.00;54.80;;;;;;5051890;28;20066;-48
2022/11/01 01:07:29;;;;;;;4.32;2.70;;;22.00;54.90;;;;;;5052268;28;20095;-50
2022/11/01 01:09:55;;;;;;;4.93;2.85;;;22.00;54.80;;;;;;5053068;28;20083;-49
2022/11/01 01:12:21;;;;;;;5.13;2.58;;;22.00;54.90;;;;;;5052513;28;20480;-47
2022/11/01 01:14:47;;;;;;;4.18;2.38;;;22.00;54.90;;;;;;5051244;28;20034;-51
2022/11/01 01:17:13;;;;;;;3.67;2.38;;;22.00;54.90;;;;;;5048917;28;20086;-53
2022/11/01 01:19:39;;;;;;;3.47;2.35;;;22.00;54.90;;;;;;5051449;28;20045;-50
2022/11/01 01:22:05;;;;;;;4.57;2.55;;;22.00;54.90;;;;;;5051815;28;20471;-49
2022/11/01 01:24:32;;;;;;;5.13;2.40;;;22.00;54.90;;;;;;5052020;28;20029;-49
2022/11/01 01:26:58;;;;;;;6.00;2.38;;;22.00;54.90;;;;;;5050975;28;20033;-51
2022/11/01 01:29:24;;;;;;;3.70;2.10;;;22.00;54.90;;;;;;5052545;28;20032;-52
2022/11/01 01:31:50;;;;;;;6.22;2.53;;;22.00;55.00;;;;;;5050765;28;20036;-49
2022/11/01 01:34:17;;;;;;;4.40;2.55;;;22.00;55.00;;;;;;5052413;28;20048;-46
2022/11/01 01:36:44;;;;;;;6.43;2.60;;;22.00;55.00;;;;;;5051410;28;20029;-52
2022/11/01 01:39:10;;;;;;;4.03;2.47;;;22.00;55.00;;;;;;5050272;28;20048;-51
2022/11/01 01:41:54;;;;;;;4.75;2.70;;;22.00;55.00;;;;;;5051623;28;20440;-47
2022/11/01 01:44:51;;;;;;;6.07;2.65;;;22.00;55.00;;;;;;5050603;28;20138;-51
2022/11/01 01:47:19;;;;;;;5.53;2.50;;;22.00;55.00;;;;;;5051450;28;20052;-50
2022/11/01 01:49:48;;;;;;;4.55;2.67;;;22.00;55.00;;;;;;5050654;28;20051;-47
2022/11/01 01:52:14;;;;;;;5.80;2.40;;;22.00;55.10;;;;;;5051224;28;20048;-48
2022/11/01 01:54:41;;;;;;;3.85;2.50;;;22.00;55.10;;;;;;5050771;28;20082;-52
2022/11/01 01:57:07;;;;;;;3.30;2.10;;;22.00;55.70;;;;;;5051864;28;20037;-49
2022/11/01 01:59:35;;;;;;;3.85;2.35;;;22.00;55.10;;;;;;5049777;28;20036;-50
2022/11/01 02:02:01;;;;;;;3.90;2.25;;;22.00;55.10;;;;;;5051004;28;20033;-48
2022/11/01 02:04:27;;;;;;;5.90;2.53;;;22.00;55.00;;;;;;5049486;28;20524;-49
2022/11/01 02:06:53;;;;;;;4.00;2.30;;;22.00;55.00;;;;;;5050893;28;20111;-48
2022/11/01 02:09:19;;;;;;;4.43;2.42;;;22.00;55.00;;;;;;5049496;28;20040;-48
2022/11/01 02:11:46;;;;;;;4.53;2.20;;;21.90;55.00;;;;;;5048828;28;20048;-54
2022/11/01 02:14:12;;;;;;;4.57;2.50;;;22.00;55.00;;;;;;5051294;28;20028;-48
2022/11/01 02:16:59;;;;;;;5.65;2.80;;;22.00;55.10;;;;;;5050698;28;20033;-49
2022/11/01 02:20:02;;;;;;;3.85;2.30;;;22.00;55.10;;;;;;5049506;28;20025;-47
2022/11/01 02:22:43;;;;;;;4.32;2.20;;;22.00;55.00;;;;;;5050035;28;20094;-47
2022/11/01 02:25:37;;;;;;;3.72;2.17;;;22.00;55.10;;;;;;5049579;28;20029;-49
2022/11/01 02:28:21;;;;;;;5.43;2.53;;;21.90;55.10;;;;;;5050885;28;20068;-49
2022/11/01 02:31:16;;;;;;;4.10;2.08;;;22.00;55.20;;;;;;5049401;28;20033;-46
2022/11/01 02:33:48;;;;;;;4.15;2.10;;;22.00;55.20;;;;;;5021054;28;20474;-50
2022/11/01 02:36:29;;;;;;;4.10;2.22;;;21.90;55.80;;;;;;5050940;28;20348;-51
2022/11/01 02:39:00;;;;;;;3.38;2.03;;;22.00;55.30;;;;;;5048542;28;20029;-48
2022/11/01 02:41:50;;;;;;;4.95;2.47;;;22.00;55.30;;;;;;5049371;28;20043;-54
2022/11/01 02:44:21;;;;;;;4.20;2.20;;;21.90;55.30;;;;;;5048488;28;20056;-50
2022/11/01 02:47:00;;;;;;;4.25;2.45;;;22.00;55.40;;;;;;5050482;28;20025;-49
2022/11/01 02:49:44;;;;;;;5.05;2.33;;;21.90;55.40;;;;;;5049556;28;20330;-50
2022/11/01 02:52:23;;;;;;;2.97;1.58;;;22.00;55.40;;;;;;5050796;28;20047;-48
2022/11/01 02:54:55;;;;;;;3.05;1.98;;;21.90;55.40;;;;;;5037384;28;20043;-50
2022/11/01 02:57:35;;;;;;;3.35;2.10;;;21.90;55.50;;;;;;5048448;28;20032;-52
2022/11/01 03:00:20;;;;;;;5.10;2.25;;;21.90;55.60;;;;;;5048452;28;20029;-51
2022/11/01 03:02:50;;;;;;;5.03;1.98;;;21.90;55.70;;;;;;5047400;28;20372;-53
2022/11/01 03:05:28;;;;;;;5.05;2.33;;;22.00;55.70;;;;;;5049503;28;20067;-53
2022/11/01 03:08:01;;;;;;;4.18;2.65;;;21.90;55.70;;;;;;5048410;28;20082;-53
2022/11/01 03:10:55;;;;;;;3.33;1.92;;;21.90;55.70;;;;;;5049189;28;20555;-53
2022/11/01 03:13:37;;;;;;;3.33;1.85;;;22.00;55.80;;;;;;5042860;28;20412;-51
2022/11/01 03:16:15;;;;;;;3.22;2.05;;;21.90;55.80;;;;;;5048751;28;20044;-51
2022/11/01 03:18:51;;;;;;;3.42;2.30;;;22.00;55.90;;;;;;5050657;28;20053;-49
2022/11/01 03:21:23;;;;;;;2.85;1.90;;;22.00;56.00;;;;;;5049039;28;20460;-51
2022/11/01 03:23:58;;;;;;;2.58;1.90;;;22.00;56.00;;;;;;5050662;28;20356;-49
2022/11/01 03:26:29;;;;;;;3.25;1.98;;;22.00;56.10;;;;;;5049250;28;20029;-54
2022/11/01 03:28:59;;;;;;;3.33;2.05;;;21.90;56.10;;;;;;5049732;28;20029;-53
2022/11/01 03:31:31;;;;;;;3.05;1.92;;;22.00;56.30;;;;;;5048639;28;20044;-48
2022/11/01 03:34:05;;;;;;;4.00;1.88;;;22.00;56.30;;;;;;5034743;28;20030;-50
2022/11/01 03:36:37;;;;;;;4.22;1.90;;;21.90;56.20;;;;;;5048325;28;20029;-50
2022/11/01 03:39:14;;;;;;;3.28;1.88;;;22.00;56.30;;;;;;5051298;28;20048;-56
2022/11/01 03:41:45;;;;;;;3.42;1.80;;;21.90;56.20;;;;;;5055687;28;20025;-53
2022/11/01 03:44:12;;;;;;;2.05;1.40;;;21.90;56.30;;;;;;5053777;28;20021;-52
2022/11/01 03:46:40;;;;;;;4.97;2.08;;;21.90;56.20;;;;;;5056390;28;20025;-51
2022/11/01 03:49:06;;;;;;;2.58;1.60;;;22.00;56.30;;;;;;5054473;28;20064;-51
2022/11/01 03:51:31;;;;;;;2.83;1.83;;;22.00;57.00;;;;;;5055861;28;20937;-50
2022/11/01 03:53:57;;;;;;;4.50;1.73;;;22.00;56.40;;;;;;5053544;28;20043;-49
2022/11/01 03:56:23;;;;;;;3.35;1.95;;;21.90;56.30;;;;;;5055176;28;20102;-48
2022/11/01 03:58:49;;;;;;;2.80;1.75;;;22.00;56.30;;;;;;5054422;28;20452;-51
2022/11/01 04:01:16;;;;;;;4.07;1.90;;;22.00;57.00;;;;;;5055662;28;20348;-49
2022/11/01 04:03:43;;;;;;;2.80;1.70;;;21.90;56.30;;;;;;5056307;28;20472;-48
2022/11/01 04:06:09;;;;;;;3.13;1.75;;;21.90;56.30;;;;;;5056007;28;20033;-48
2022/11/01 04:08:35;;;;;;;2.85;1.63;;;22.00;56.40;;;;;;5055303;28;20036;-49
2022/11/01 04:11:02;;;;;;;2.78;1.80;;;21.90;56.30;;;;;;5056320;28;20033;-49
2022/11/01 04:13:28;;;;;;;2.42;1.73;;;22.00;56.40;;;;;;5055036;28;20028;-47
2022/11/01 04:21:25;;;;;;;3.28;1.98;;;22.00;56.40;;;;;;5052983;28;20047;-49
2022/11/01 04:23:51;;;;;;;3.60;1.92;;;21.90;56.30;;;;;;5055488;28;20059;-48
2022/11/01 04:26:19;;;;;;;3.20;1.80;;;21.90;56.30;;;;;;5055467;28;20021;-52
2022/11/01 04:28:55;;;;;;;2.42;1.45;;;22.00;56.30;;;;;;5056006;28;20451;-48
2022/11/01 04:31:33;;;;;;;2.13;1.50;;;21.90;56.20;;;;;;5054782;28;20033;-50
2022/11/01 04:34:00;;;;;;;2.25;1.35;;;21.90;56.10;;;;;;5054747;28;20120;-52
2022/11/01 04:36:27;;;;;;;3.38;1.77;;;22.00;56.10;;;;;;5056345;28;20036;-51
2022/11/01 04:38:56;;;;;;;2.83;1.67;;;21.90;55.90;;;;;;5056294;28;20037;-50
2022/11/01 04:41:24;;;;;;;2.45;1.20;;;22.00;55.90;;;;;;5055933;28;20130;-49
2022/11/01 04:43:52;;;;;;;3.33;1.50;;;22.00;55.80;;;;;;5054959;28;20033;-50
2022/11/01 04:46:18;;;;;;;2.35;1.38;;;22.00;55.60;;;;;;5055797;28;20040;-53
2022/11/01 04:48:44;;;;;;;3.70;1.52;;;22.00;55.50;;;;;;5055463;28;20021;-50
2022/11/01 04:51:10;;;;;;;3.30;1.60;;;22.00;55.40;;;;;;5051945;28;20611;-53
2022/11/01 04:53:37;;;;;;;2.22;1.27;;;22.00;55.30;;;;;;5050175;28;20032;-53
2022/11/01 04:56:04;;;;;;;2.03;1.27;;;22.00;55.00;;;;;;5053391;28;20033;-52
2022/11/01 04:58:32;;;;;;;2.20;1.40;;;21.90;54.80;;;;;;5052398;28;20021;-50
2022/11/01 05:00:58;;;;;;;1.70;1.20;;;21.90;54.60;;;;;;5051489;28;20452;-49
2022/11/01 05:03:23;;;;;;;2.45;1.13;;;22.00;54.70;;;;;;5051644;28;20025;-55
2022/11/01 05:05:49;;;;;;;1.60;1.02;;;21.90;54.20;;;;;;5053196;28;20028;-53
2022/11/01 05:08:15;;;;;;;1.95;1.02;;;21.90;54.00;;;;;;5051196;28;20048;-51
2022/11/01 05:10:43;;;;;;;2.05;1.30;;;22.00;53.80;;;;;;5052179;28;20037;-52
2022/11/01 05:13:10;;;;;;;2.10;1.10;;;22.00;53.60;;;;;;5049147;28;20082;-53
2022/11/01 05:15:36;;;;;;;2.88;1.50;;;21.90;53.50;;;;;;5053108;28;20040;-51
2022/11/01 05:18:03;;;;;;;3.63;1.20;;;21.90;53.40;;;;;;5050671;28;20059;-51
2022/11/01 05:20:30;;;;;;;2.10;0.90;;;22.00;53.40;;;;;;5052026;28;20475;-53
2022/11/01 05:23:03;;;;;;;2.85;1.20;;;21.90;53.20;;;;;;5049733;28;20029;-48
2022/11/01 05:25:30;;;;;;;2.67;1.37;;;21.90;53.10;;;;;;5051015;28;20349;-53
2022/11/01 05:28:00;;;;;;;3.05;1.10;;;21.90;53.00;;;;;;5049811;28;20029;-53
2022/11/01 05:30:26;;;;;;;1.63;0.95;;;21.90;52.90;;;;;;5051199;28;20430;-49
2022/11/01 05:33:00;;;;;;;1.60;1.10;;;22.00;52.90;;;;;;5050163;28;20041;-53
2022/11/01 05:35:27;;;;;;;1.15;0.70;;;21.90;53.40;;;;;;5053210;28;20029;-51
2022/11/01 05:37:53;;;;;;;2.03;1.10;;;21.90;52.80;;;;;;5050885;28;20032;-47
2022/11/01 05:40:18;;;;;;;2.10;1.00;;;22.00;52.80;;;;;;5052801;28;20033;-49
2022/11/01 05:42:44;;;;;;;1.02;0.80;;;21.90;52.60;;;;;;5050927;28;20032;-53
2022/11/01 05:45:10;;;;;;;1.95;1.00;;;22.00;52.60;;;;;;5050425;28;20020;-48
2022/11/01 05:47:39;;;;;;;1.77;0.93;;;21.90;52.50;;;;;;5050728;28;20028;-48
2022/11/01 05:50:10;;;;;;;1.02;0.80;;;22.00;52.40;;;;;;5051722;28;20052;-49
2022/11/01 05:52:36;;;;;;;2.22;1.00;;;22.00;52.40;;;;;;5050229;28;20032;-49
2022/11/01 05:55:02;;;;;;;1.83;1.05;;;22.00;52.30;;;;;;5052174;28;20337;-51
2022/11/01 05:57:28;;;;;;;2.35;0.60;;;22.00;52.20;;;;;;5051214;28;20406;-54
2022/11/01 05:59:54;;;;;;;0.82;0.60;;;22.00;52.20;;;;;;5051113;28;20058;-54
2022/11/01 06:02:19;;;;;;;2.10;0.73;;;21.90;52.10;;;;;;5049058;28;20052;-46
2022/11/01 06:04:45;;;;;;;1.20;0.85;;;21.90;52.00;;;;;;5051208;28;20313;-48
2022/11/01 06:07:11;;;;;;;1.85;0.93;;;21.90;52.00;;;;;;5051612;28;20505;-49
2022/11/01 06:09:37;;;;;;;1.98;0.88;;;21.90;51.90;;;;;;5050995;28;20406;-50
2022/11/01 06:12:03;;;;;;;2.47;1.00;;;22.00;51.90;;;;;;5049616;28;20113;-53
2022/11/01 06:14:29;;;;;;;1.38;0.70;;;21.90;51.80;;;;;;5050051;28;20444;-48
2022/11/01 06:16:55;;;;;;;1.27;0.63;;;21.90;51.70;;;;;;5050211;28;20041;-53
2022/11/01 06:19:21;;;;;;;1.73;0.77;;;21.90;51.60;;;;;;5049882;28;20090;-52
2022/11/01 06:21:47;;;;;;;2.55;1.05;;;21.90;51.50;;;;;;5050620;28;20029;-51
2022/11/01 06:24:12;;;;;;;1.65;0.60;;;21.90;51.40;;;;;;5049445;28;20026;-52
2022/11/01 06:26:38;;;;;;;1.52;0.80;;;21.90;51.30;;;;;;5045925;28;20025;-49
2022/11/01 06:29:04;;;;;;;2.25;0.70;;;21.90;51.20;;;;;;5047172;28;20129;-49
2022/11/01 06:31:30;;;;;;;1.33;0.70;;;21.90;51.10;;;;;;5049567;28;20462;-50
2022/11/01 06:33:56;;;;;;;1.15;0.70;;;21.90;50.90;;;;;;5050127;28;20052;-54
2022/11/01 06:36:23;;;;;;;1.10;0.70;;;21.90;50.90;;;;;;5050918;28;20052;-48
2022/11/01 06:38:49;;;;;;;1.90;0.80;;;21.90;50.80;;;;;;5051141;28;20040;-48
2022/11/01 06:41:14;;;;;;;1.35;0.63;;;21.90;50.70;;;;;;5049012;28;20086;-51
2022/11/01 06:43:40;;;;;;;1.63;0.80;;;21.90;51.30;;;;;;5050272;28;20018;-50
2022/11/01 06:46:06;;;;;;;1.35;0.90;;;21.90;50.60;;;;;;5050172;28;20437;-51
2022/11/01 06:48:32;;;;;;;4.72;0.90;;;21.90;50.50;;;;;;5048213;28;20025;-51
2022/11/01 06:51:01;;;;;;;2.22;0.85;;;21.90;50.40;;;;;;5048839;28;20445;-49
2022/11/01 06:53:27;;;;;;;2.00;0.63;;;21.90;50.30;;;;;;5048648;28;20475;-53
2022/11/01 06:55:53;;;;;;;1.85;0.85;;;21.90;50.30;;;;;;5049618;28;20061;-51
2022/11/01 06:58:19;;;;;;;1.67;0.90;;;21.90;50.20;;;;;;5050989;28;20032;-51
2022/11/01 07:00:44;;;;;;;3.28;0.90;;;21.90;50.20;;;;;;5048758;28;20348;-48
2022/11/01 07:03:12;;;;;;;1.58;0.65;;;21.80;50.10;;;;;;5046348;28;20021;-49
2022/11/01 07:05:39;;;;;;;2.08;0.70;;;21.90;50.20;;;;;;5048167;28;20107;-50
2022/11/01 07:08:07;;;;;;;1.77;0.85;;;21.90;50.10;;;;;;5049210;28;20029;-51
2022/11/01 07:10:34;;;;;;;0.90;0.40;;;21.90;50.10;;;;;;5049384;28;20048;-51
2022/11/01 07:13:01;;;;;;;1.30;0.55;;;21.90;50.00;;;;;;5050085;28;20029;-52
2022/11/01 07:15:29;;;;;;;4.55;1.02;;;21.90;50.00;;;;;;5052186;28;20029;-53
2022/11/01 07:17:59;;;;;;;1.92;0.70;;;21.80;49.90;;;;;;5049341;28;20052;-56
2022/11/01 07:20:27;;;;;;;1.63;0.60;;;21.90;49.90;;;;;;5048724;28;20029;-49
2022/11/01 07:22:58;;;;;;;1.60;0.70;;;21.80;49.70;;;;;;5048904;28;20532;-52
2022/11/01 07:25:24;;;;;;;2.33;0.82;;;21.90;49.70;;;;;;5048186;28;20413;-49
2022/11/01 07:27:50;;;;;;;2.38;0.80;;;21.90;49.70;;;;;;5048954;28;20045;-53
2022/11/01 07:30:15;;;;;;;1.63;0.70;;;21.80;49.60;;;;;;5049582;28;20144;-54
2022/11/01 07:32:41;;;;;;;2.17;0.70;;;21.90;49.50;;;;;;5047262;28;20332;-50
2022/11/01 07:35:07;;;;;;;2.38;0.68;;;21.90;49.50;;;;;;5049590;28;20453;-48
2022/11/01 07:37:33;;;;;;;1.95;0.77;;;21.90;49.30;;;;;;5046980;28;20029;-51
2022/11/01 07:39:59;;;;;;;3.17;0.57;;;21.80;49.20;;;;;;5047119;28;20048;-51
2022/11/01 07:42:29;;;;;;;1.77;0.70;;;21.80;49.30;;;;;;5048479;28;20450;-48
2022/11/01 07:44:55;;;;;;;2.00;0.90;;;21.90;49.30;;;;;;5043501;28;20356;-51
2022/11/01 07:47:21;;;;;;;2.33;0.80;;;21.90;49.30;;;;;;5049373;28;20031;-52
2022/11/01 07:49:49;;;;;;;2.10;0.60;;;21.90;49.30;;;;;;5049136;28;20531;-52
2022/11/01 07:52:15;;;;;;;2.15;0.75;;;21.90;49.40;;;;;;5044944;28;20404;-52
2022/11/01 07:54:41;;;;;;;1.00;0.50;;;21.90;49.40;;;;;;5049471;28;20111;-49
2022/11/01 07:57:07;;;;;;;2.60;0.65;;;21.80;49.30;;;;;;5057941;28;20103;-50
2022/11/01 07:59:33;;;;;;;2.20;0.80;;;21.90;49.30;;;;;;5055571;28;20087;-51
2022/11/01 08:01:59;;;;;;;2.10;0.80;;;21.90;49.30;;;;;;5053794;28;20037;-53
2022/11/01 08:04:25;;;;;;;2.50;0.70;;;21.90;49.30;;;;;;5053822;28;20112;-51
2022/11/01 08:06:52;;;;;;;2.72;0.85;;;21.90;49.30;;;;;;5053537;28;20057;-48
2022/11/01 08:09:20;;;;;;;2.63;0.93;;;21.90;49.20;;;;;;5050572;28;20025;-48
2022/11/01 08:11:46;;;;;;;3.17;0.95;;;21.90;49.00;;;;;;5049008;28;20029;-50
2022/11/01 08:14:12;;;;;;;2.90;0.80;;;21.90;48.90;;;;;;5038498;28;20116;-48
2022/11/01 08:16:38;;;;;;;2.10;0.90;;;21.90;48.70;;;;;;5045544;28;20052;-49
2022/11/01 08:19:04;;;;;;;2.80;1.05;;;21.90;48.60;;;;;;5045536;28;20044;-50
2022/11/01 08:21:29;;;;;;;3.08;0.90;;;21.90;48.60;;;;;;5046779;28;20041;-52
2022/11/01 08:23:55;;;;;;;2.00;0.95;;;21.90;48.50;;;;;;5050015;28;20021;-49
2022/11/01 08:26:21;;;;;;;2.25;0.80;;;21.90;48.40;;;;;;5052132;28;20045;-51
2022/11/01 08:28:47;;;;;;;2.55;0.93;;;21.90;48.40;;;;;;5053751;28;20425;-50
2022/11/01 08:31:12;;;;;;;2.63;0.90;;;21.90;48.30;;;;;;5050845;28;20044;-48
2022/11/01 08:33:38;;;;;;;2.10;0.88;;;21.90;48.20;;;;;;5054512;28;20174;-50
2022/11/01 08:36:04;;;;;;;2.28;0.90;;;21.90;48.10;;;;;;5049717;28;20432;-47
2022/11/01 08:38:30;;;;;;;2.53;0.98;;;21.90;48.10;;;;;;5049937;28;20099;-52
2022/11/01 08:40:58;;;;;;;4.50;1.08;;;21.90;48.10;;;;;;5051801;28;20033;-50
2022/11/01 08:43:24;;;;;;;2.63;0.90;;;21.90;48.10;;;;;;5061511;28;20059;-49
2022/11/01 08:45:50;;;;;;;3.00;1.00;;;21.90;48.00;;;;;;5051537;28;20134;-49
2022/11/01 08:48:15;;;;;;;1.70;0.70;;;21.90;48.00;;;;;;5052610;28;20040;-52
2022/11/01 08:50:41;;;;;;;3.25;1.00;;;21.90;48.00;;;;;;5036950;28;20117;-49
2022/11/01 08:53:10;;;;;;;2.58;0.80;;;21.90;47.90;;;;;;5050548;28;20444;-51
2022/11/01 08:55:36;;;;;;;4.35;1.25;;;21.90;47.90;;;;;;5052719;28;20029;-51
2022/11/01 08:58:02;;;;;;;3.25;1.10;;;21.90;47.90;;;;;;5055067;28;20032;-52
2022/11/01 09:00:28;;;;;;;3.20;1.00;;;21.90;47.90;;;;;;5051982;28;20036;-54
2022/11/01 09:02:54;;;;;;;1.90;0.80;;;21.90;47.80;;;;;;5057302;28;20108;-49
2022/11/01 09:05:31;;;;;;;3.55;1.00;;;21.90;47.80;;;;;;5039505;28;20112;-54
2022/11/01 09:07:58;;;;;;;4.30;1.02;;;21.90;47.70;;;;;;5037666;28;20457;-60
2022/11/01 09:10:29;;;;;;;3.90;1.15;;;21.90;47.70;;;;;;5042053;28;20052;-56
2022/11/01 09:12:57;;;;;;;2.55;1.05;;;21.90;47.80;;;;;;5051196;28;20017;-56
2022/11/01 09:15:24;;;;;;;2.25;1.00;;;21.90;48.70;;;;;;5045541;28;20041;-56
2022/11/01 09:17:51;;;;;;;3.25;1.00;;;22.00;48.30;;;;;;5046712;28;20124;-56
2022/11/01 09:20:18;;;;;;;3.17;0.90;;;22.00;48.40;;;;;;5020302;28;20049;-56
2022/11/01 09:22:51;;;;;;;4.93;1.30;;;22.10;48.40;;;;;;5032256;28;20354;-56
2022/11/01 09:25:17;;;;;;;3.00;1.00;;;22.20;48.40;;;;;;5031406;28;20389;-52
2022/11/01 09:27:42;;;;;;;2.38;0.90;;;22.30;48.30;;;;;;5032400;28;20045;-47
2022/11/01 09:30:09;;;;;;;2.97;0.90;;;22.40;48.20;;;;;;5034741;28;20029;-50
2022/11/01 09:32:35;;;;;;;2.80;0.90;;;22.40;48.00;;;;;;5035805;28;20076;-52
2022/11/01 09:35:00;;;;;;;5.18;1.08;;;22.50;47.80;;;;;;5034831;28;20057;-49
2022/11/01 09:37:26;;;;;;;3.58;1.20;;;22.50;47.50;;;;;;5034214;28;20034;-49
2022/11/01 09:39:52;;;;;;;4.00;1.02;;;22.60;47.30;;;;;;5032466;28;20033;-49
2022/11/01 09:42:28;;;;;;;2.65;0.75;;;22.60;47.10;;;;;;5034128;28;20440;-48
2022/11/01 09:44:58;;;;;;;2.50;1.02;;;22.60;47.00;;;;;;5029920;28;20026;-48
2022/11/01 09:47:28;;;;;;;3.88;1.15;;;22.60;46.80;;;;;;5034634;28;20029;-49
2022/11/01 09:50:09;;;;;;;2.13;0.98;;;22.60;46.60;;;;;;5036007;28;20357;-52
2022/11/01 09:52:35;;;;;;;4.22;1.13;;;22.60;46.50;;;;;;5036122;28;20088;-49
2022/11/01 09:55:01;;;;;;;3.63;1.23;;;22.50;46.20;;;;;;5036204;28;20113;-51
2022/11/01 09:57:42;;;;;;;4.78;1.38;;;22.50;46.10;;;;;;5036298;28;20029;-50
2022/11/01 10:00:18;;;;;;;3.47;1.05;;;22.60;46.10;;;;;;5036928;28;20104;-49
2022/11/01 10:03:07;;;;;;;4.68;1.23;;;22.60;46.00;;;;;;5030309;28;20076;-49
2022/11/01 10:05:49;;;;;;;3.88;0.90;;;22.50;45.90;;;;;;5030699;28;20032;-53
2022/11/01 10:08:49;;;;;;;3.58;1.05;;;22.50;46.10;;;;;;5031351;28;20029;-51
2022/11/01 10:11:48;;;;;;;3.42;1.30;;;22.50;46.30;;;;;;5016175;28;20401;-49
2022/11/01 10:14:35;;;;;;;3.03;1.30;;;22.50;46.60;;;;;;5019398;28;20041;-51
2022/11/01 10:17:13;;;;;;;3.33;1.40;;;22.50;46.80;;;;;;5043533;28;20060;-50
2022/11/01 10:19:44;;;;;;;5.60;1.00;;;22.40;47.00;;;;;;5055721;28;20356;-52
2022/11/01 10:22:17;;;;;;;3.47;0.82;;;22.50;47.00;;;;;;5056200;28;20044;-53
2022/11/01 10:24:56;;;;;;;3.20;1.08;;;22.50;47.30;;;;;;5055937;28;20025;-48
2022/11/01 10:28:02;;;;;;;3.50;1.25;;;22.50;47.40;;;;;;5052653;28;20106;-54
2022/11/01 10:30:35;;;;;;;2.20;0.93;;;22.50;47.50;;;;;;5055680;28;20091;-50
2022/11/01 10:33:15;;;;;;;3.65;1.20;;;22.50;47.50;;;;;;5054964;28;20116;-54
2022/11/01 10:35:50;;;;;;;4.93;1.35;;;22.50;47.50;;;;;;5045611;28;20090;-49
2022/11/01 10:38:39;;;;;;;4.32;1.60;;;22.50;47.60;;;;;;5054895;28;20429;-52
2022/11/01 10:41:07;;;;;;;2.72;1.05;;;22.50;47.60;;;;;;5055151;28;20444;-50
2022/11/01 10:43:39;;;;;;;5.50;1.30;;;22.40;47.50;;;;;;5057091;28;20040;-48
2022/11/01 10:46:09;;;;;;;4.10;1.40;;;22.50;47.60;;;;;;5055411;28;20041;-51
2022/11/01 10:48:40;;;;;;;3.72;1.33;;;22.50;47.60;;;;;;5054231;28;20348;-51
2022/11/01 10:51:08;;;;;;;4.53;1.25;;;22.50;47.60;;;;;;5052172;28;20433;-48
2022/11/01 10:53:45;;;;;;;2.40;0.88;;;22.50;47.60;;;;;;5054021;28;20410;-52
2022/11/01 10:56:36;;;;;;;3.75;1.20;;;22.50;47.60;;;;;;5055356;28;20025;-52
2022/11/01 10:59:07;;;;;;;3.88;1.05;;;22.60;47.70;;;;;;5053056;28;20120;-50
2022/11/01 11:01:41;;;;;;;4.57;1.30;;;22.50;47.60;;;;;;5060762;28;20024;-51
2022/11/01 11:04:13;;;;;;;2.75;0.80;;;22.50;47.60;;;;;;5054470;28;20117;-53
2022/11/01 11:06:41;;;;;;;4.55;1.20;;;22.50;47.60;;;;;;5053025;28;20025;-52
2022/11/01 11:09:23;;;;;;;4.30;1.38;;;22.60;47.70;;;;;;5053558;28;20025;-50
2022/11/01 11:11:50;;;;;;;7.35;1.13;;;22.60;47.70;;;;;;5032376;28;20041;-48
2022/11/01 11:14:19;;;;;;;4.45;1.05;;;22.60;47.70;;;;;;5039671;28;20116;-52
2022/11/01 11:16:52;;;;;;;3.38;1.15;;;22.60;47.70;;;;;;5053827;28;20428;-51
2022/11/01 11:19:33;;;;;;;4.45;1.00;;;22.60;47.70;;;;;;5053150;28;20037;-52
2022/11/01 11:22:00;;;;;;;4.95;1.02;;;22.60;47.70;;;;;;5053800;28;20094;-49
2022/11/01 11:24:36;;;;;;;6.55;1.75;;;22.60;47.60;;;;;;5054041;28;20125;-51
2022/11/01 11:27:09;;;;;;;5.85;1.27;;;22.70;47.60;;;;;;5049772;28;20109;-49
2022/11/01 11:29:47;;;;;;;4.07;1.10;;;22.70;47.60;;;;;;5048386;28;20095;-50
2022/11/01 11:32:29;;;;;;;5.63;1.15;;;22.70;47.40;;;;;;5051406;28;20041;-58
2022/11/01 11:35:13;;;;;;;4.65;1.13;;;22.70;47.20;;;;;;5052064;28;20048;-57
2022/11/01 11:37:49;;;;;;;5.32;1.25;;;22.70;47.20;;;;;;5051366;28;20055;-55
2022/11/01 11:40:47;;;;;;;7.70;1.30;;;22.70;47.20;;;;;;5053187;28;20087;-58
2022/11/01 11:43:30;;;;;;;4.50;1.20;;;22.80;47.20;;;;;;5010560;28;20384;-56
2022/11/01 11:46:06;;;;;;;7.28;1.40;;;22.80;47.00;;;;;;5054877;28;20044;-59
2022/11/01 11:48:32;;;;;;;8.57;1.25;;;22.80;46.80;;;;;;5051371;28;20076;-56
2022/11/01 11:51:02;;;;;;;3.67;1.40;;;22.90;46.60;;;;;;5052791;28;20072;-59
2022/11/01 11:53:28;;;;;;;4.25;1.15;;;23.00;46.20;;;;;;5047519;28;20034;-60
2022/11/01 11:56:00;;;;;;;4.35;1.10;;;23.20;46.10;;;;;;5051047;28;20500;-57
2022/11/01 11:58:33;;;;;;;4.63;1.17;;;23.20;45.90;;;;;;5054928;28;20042;-58
2022/11/01 12:01:07;;;;;;;3.30;1.20;;;23.40;45.60;;;;;;5055014;28;20025;-59
2022/11/01 12:03:46;;;;;;;4.25;1.15;;;23.50;45.20;;;;;;5055611;28;20455;-58
2022/11/01 12:06:37;;;;;;;5.20;1.20;;;23.60;45.00;;;;;;5041163;28;20037;-57
2022/11/01 12:09:04;;;;;;;3.55;0.95;;;23.70;44.70;;;;;;5051921;28;20078;-58
2022/11/01 12:11:45;;;;;;;4.72;1.35;;;23.80;44.70;;;;;;5055155;28;20372;-57
2022/11/01 12:14:33;;;;;;;8.85;1.60;;;23.90;44.70;;;;;;5058605;28;20033;-55
2022/11/01 12:17:00;;;;;;;4.18;1.08;;;24.00;44.50;;;;;;5055626;28;20517;-60
2022/11/01 12:19:28;;;;;;;5.90;1.30;;;24.10;44.40;;;;;;5040492;28;20037;-58
2022/11/01 12:21:57;;;;;;;4.85;1.58;;;24.20;44.20;;;;;;5056466;28;20029;-54
2022/11/01 12:24:48;;;;;;;3.40;1.20;;;24.20;43.90;;;;;;5055844;28;20037;-59
2022/11/01 12:27:20;;;;;;;3.53;1.13;;;24.30;43.70;;;;;;5056138;28;20102;-58
2022/11/01 12:30:03;;;;;;;7.78;1.45;;;24.40;43.60;;;;;;5054273;28;20021;-59
2022/11/01 12:32:48;;;;;;;6.60;1.20;;;24.40;43.50;;;;;;5055757;28;20093;-61
2022/11/01 12:35:32;;;;;;;6.30;1.38;;;24.50;43.50;;;;;;5038745;28;20037;-62
2022/11/01 12:38:27;;;;;;;5.43;1.20;;;24.60;43.50;;;;;;5056888;28;20032;-58
2022/11/01 12:40:53;;;;;;;4.35;1.17;;;24.60;43.40;;;;;;5052073;28;20094;-59
2022/11/01 12:43:34;;;;;;;3.50;1.08;;;24.70;43.40;;;;;;5055962;28;20021;-59
2022/11/01 12:46:12;;;;;;;3.38;1.13;;;24.80;43.30;;;;;;5052395;28;20025;-57
2022/11/01 12:48:52;;;;;;;3.13;1.10;;;24.80;43.30;;;;;;5056122;28;20036;-59
2022/11/01 12:51:31;;;;;;;6.40;1.48;;;24.90;44.00;;;;;;5057841;28;20036;-61
2022/11/01 12:54:27;;;;;;;5.68;1.40;;;24.90;43.30;;;;;;5048580;28;20067;-59
2022/11/01 12:56:57;;;;;;;4.35;1.30;;;24.90;43.20;;;;;;5058181;28;20048;-59
2022/11/01 12:59:34;;;;;;;3.17;1.10;;;25.00;43.10;;;;;;5053825;28;20095;-60
2022/11/01 13:02:23;;;;;;;5.00;1.30;;;25.00;43.00;;;;;;5057567;28;20029;-60
2022/11/01 13:05:17;;;;;;;5.18;1.45;;;25.10;42.90;;;;;;5055585;28;20032;-57
2022/11/01 13:07:54;;;;;;;4.70;1.17;;;25.10;42.80;;;;;;5055453;28;20029;-61
2022/11/01 13:10:26;;;;;;;4.07;1.20;;;25.10;42.70;;;;;;5056315;28;20033;-62
2022/11/01 13:13:16;;;;;;;4.05;1.23;;;25.20;42.70;;;;;;5057014;28;20070;-59